sensor_id;sensor_type;location;lat;lon;timestamp;pressure;altitude;pressure_sealevel;temperature;humidity
49827;BME280;35715;51.570;6.036;2023-01-27T00:00:28;102279.13;;;5.48;94.06
49827;BME280;35715;51.570;6.036;2023-01-27T00:02:53;102289.53;;;5.49;94.52
49827;BME280;35715;51.570;6.036;2023-01-27T00:05:30;102283.53;;;5.49;94.77
49827;BME280;35715;51.570;6.036;2023-01-27T00:07:55;102284.09;;;5.46;95.04
49827;BME280;35715;51.570;6.036;2023-01-27T00:10:22;102288.13;;;5.44;95.29
49827;BME280;35715;51.570;6.036;2023-01-27T00:12:48;102284.09;;;5.46;95.46
49827;BME280;35715;51.570;6.036;2023-01-27T00:15:33;102288.47;;;5.47;95.46
49827;BME280;35715;51.570;6.036;2023-01-27T00:17:58;102289.38;;;5.48;95.06
49827;BME280;35715;51.570;6.036;2023-01-27T00:20:24;102294.41;;;5.39;95.15
49827;BME280;35715;51.570;6.036;2023-01-27T00:23:13;102290.19;;;5.40;95.18
49827;BME280;35715;51.570;6.036;2023-01-27T00:29:00;102292.41;;;5.37;95.32
49827;BME280;35715;51.570;6.036;2023-01-27T00:31:25;102283.06;;;5.37;95.20
49827;BME280;35715;51.570;6.036;2023-01-27T00:36:45;102286.38;;;5.36;95.44
49827;BME280;35715;51.570;6.036;2023-01-27T00:39:11;102292.91;;;5.41;95.30
49827;BME280;35715;51.570;6.036;2023-01-27T00:41:37;102290.34;;;5.41;94.58
49827;BME280;35715;51.570;6.036;2023-01-27T00:44:17;102294.41;;;5.39;94.52
49827;BME280;35715;51.570;6.036;2023-01-27T00:46:43;102293.72;;;5.33;94.53
49827;BME280;35715;51.570;6.036;2023-01-27T00:49:08;102289.16;;;5.30;94.64
49827;BME280;35715;51.570;6.036;2023-01-27T00:51:34;102291.03;;;5.24;94.42
49827;BME280;35715;51.570;6.036;2023-01-27T00:54:00;102288.34;;;5.15;94.65
49827;BME280;35715;51.570;6.036;2023-01-27T00:56:27;102294.31;;;5.23;95.09
49827;BME280;35715;51.570;6.036;2023-01-27T00:58:52;102291.25;;;5.19;95.02
49827;BME280;35715;51.570;6.036;2023-01-27T01:01:17;102298.16;;;5.27;94.96
49827;BME280;35715;51.570;6.036;2023-01-27T01:03:51;102296.72;;;5.22;94.80
49827;BME280;35715;51.570;6.036;2023-01-27T01:06:16;102299.25;;;5.22;95.00
49827;BME280;35715;51.570;6.036;2023-01-27T01:08:42;102303.63;;;5.30;94.87
49827;BME280;35715;51.570;6.036;2023-01-27T01:11:08;102315.25;;;5.35;94.75
49827;BME280;35715;51.570;6.036;2023-01-27T01:13:43;102306.84;;;5.36;94.84
49827;BME280;35715;51.570;6.036;2023-01-27T01:16:09;102309.25;;;5.35;94.45
49827;BME280;35715;51.570;6.036;2023-01-27T01:18:35;102306.09;;;5.37;94.45
49827;BME280;35715;51.570;6.036;2023-01-27T01:21:00;102308.91;;;5.31;94.31
49827;BME280;35715;51.570;6.036;2023-01-27T01:23:25;102315.47;;;5.29;94.41
49827;BME280;35715;51.570;6.036;2023-01-27T01:25:51;102313.09;;;5.31;94.34
49827;BME280;35715;51.570;6.036;2023-01-27T01:28:17;102317.66;;;5.33;93.99
49827;BME280;35715;51.570;6.036;2023-01-27T01:30:42;102320.75;;;5.31;93.61
49827;BME280;35715;51.570;6.036;2023-01-27T01:33:08;102325.31;;;5.33;93.79
49827;BME280;35715;51.570;6.036;2023-01-27T01:35:49;102318.03;;;5.29;93.22
49827;BME280;35715;51.570;6.036;2023-01-27T01:38:14;102326.34;;;5.20;92.56
49827;BME280;35715;51.570;6.036;2023-01-27T01:40:40;102322.63;;;5.25;93.14
49827;BME280;35715;51.570;6.036;2023-01-27T01:43:15;102327.06;;;5.19;92.58
49827;BME280;35715;51.570;6.036;2023-01-27T01:45:46;102329.38;;;5.01;93.46
49827;BME280;35715;51.570;6.036;2023-01-27T01:50:37;102332.09;;;4.65;94.99
49827;BME280;35715;51.570;6.036;2023-01-27T01:53:05;102330.59;;;4.67;95.55
49827;BME280;35715;51.570;6.036;2023-01-27T01:55:31;102327.69;;;4.64;95.36
49827;BME280;35715;51.570;6.036;2023-01-27T01:57:58;102337.44;;;4.45;94.27
49827;BME280;35715;51.570;6.036;2023-01-27T02:00:23;102333.63;;;4.34;94.67
49827;BME280;35715;51.570;6.036;2023-01-27T02:02:49;102336.59;;;4.23;93.16
49827;BME280;35715;51.570;6.036;2023-01-27T02:08:03;102340.81;;;4.22;95.15
49827;BME280;35715;51.570;6.036;2023-01-27T02:10:30;102339.88;;;4.15;94.39
49827;BME280;35715;51.570;6.036;2023-01-27T02:12:56;102339.88;;;4.15;94.18
49827;BME280;35715;51.570;6.036;2023-01-27T02:15:22;102338.78;;;4.20;95.46
49827;BME280;35715;51.570;6.036;2023-01-27T02:17:47;102339.69;;;4.28;95.74
49827;BME280;35715;51.570;6.036;2023-01-27T02:25:22;102346.09;;;4.17;93.94
49827;BME280;35715;51.570;6.036;2023-01-27T02:27:49;102351.03;;;4.15;94.52
49827;BME280;35715;51.570;6.036;2023-01-27T02:30:14;102343.72;;;4.25;93.83
49827;BME280;35715;51.570;6.036;2023-01-27T02:32:40;102347.16;;;4.26;93.38
49827;BME280;35715;51.570;6.036;2023-01-27T02:35:05;102347.34;;;4.20;94.40
49827;BME280;35715;51.570;6.036;2023-01-27T02:37:33;102346.81;;;4.23;94.54
49827;BME280;35715;51.570;6.036;2023-01-27T02:39:58;102345.53;;;4.19;94.18
49827;BME280;35715;51.570;6.036;2023-01-27T02:42:24;102350.81;;;4.28;95.41
49827;BME280;35715;51.570;6.036;2023-01-27T02:44:55;102353.00;;;4.32;95.05
49827;BME280;35715;51.570;6.036;2023-01-27T02:47:20;102344.78;;;4.35;95.37
49827;BME280;35715;51.570;6.036;2023-01-27T02:49:45;102341.88;;;4.32;94.92
49827;BME280;35715;51.570;6.036;2023-01-27T02:52:11;102354.84;;;4.19;94.07
49827;BME280;35715;51.570;6.036;2023-01-27T02:54:37;102344.97;;;4.15;95.92
49827;BME280;35715;51.570;6.036;2023-01-27T02:57:02;102338.97;;;4.07;94.68
49827;BME280;35715;51.570;6.036;2023-01-27T02:59:27;102353.75;;;4.02;94.02
49827;BME280;35715;51.570;6.036;2023-01-27T03:01:53;102338.25;;;4.01;95.57
49827;BME280;35715;51.570;6.036;2023-01-27T03:04:29;102357.97;;;4.02;95.91
49827;BME280;35715;51.570;6.036;2023-01-27T03:06:54;102357.75;;;4.15;95.88
49827;BME280;35715;51.570;6.036;2023-01-27T03:09:20;102351.22;;;4.09;96.01
49827;BME280;35715;51.570;6.036;2023-01-27T03:11:45;102361.25;;;4.15;96.72
49827;BME280;35715;51.570;6.036;2023-01-27T03:14:38;102365.06;;;4.12;96.71
49827;BME280;35715;51.570;6.036;2023-01-27T03:17:22;102364.50;;;4.07;97.79
49827;BME280;35715;51.570;6.036;2023-01-27T03:20:06;102349.41;;;4.01;97.23
49827;BME280;35715;51.570;6.036;2023-01-27T03:22:31;102360.69;;;4.03;97.75
49827;BME280;35715;51.570;6.036;2023-01-27T03:24:57;102361.41;;;4.02;97.64
49827;BME280;35715;51.570;6.036;2023-01-27T03:27:22;102360.88;;;4.12;97.35
49827;BME280;35715;51.570;6.036;2023-01-27T03:29:47;102362.88;;;4.15;97.46
49827;BME280;35715;51.570;6.036;2023-01-27T03:32:19;102359.59;;;4.08;97.68
49827;BME280;35715;51.570;6.036;2023-01-27T03:34:44;102361.41;;;4.02;98.52
49827;BME280;35715;51.570;6.036;2023-01-27T03:37:09;102365.09;;;4.04;98.57
49827;BME280;35715;51.570;6.036;2023-01-27T03:39:53;102369.84;;;4.01;98.34
49827;BME280;35715;51.570;6.036;2023-01-27T03:42:37;102370.91;;;4.03;98.74
49827;BME280;35715;51.570;6.036;2023-01-27T03:45:21;102366.16;;;4.06;98.31
49827;BME280;35715;51.570;6.036;2023-01-27T03:48:05;102380.06;;;4.01;97.84
49827;BME280;35715;51.570;6.036;2023-01-27T03:50:30;102379.69;;;3.98;98.67
49827;BME280;35715;51.570;6.036;2023-01-27T03:53:02;102382.97;;;3.90;98.82
49827;BME280;35715;51.570;6.036;2023-01-27T03:55:30;102382.06;;;3.97;98.70
49827;BME280;35715;51.570;6.036;2023-01-27T03:57:55;102393.16;;;3.83;98.52
49827;BME280;35715;51.570;6.036;2023-01-27T04:00:21;102390.44;;;3.88;98.21
49827;BME280;35715;51.570;6.036;2023-01-27T04:02:46;102394.06;;;3.90;98.80
49827;BME280;35715;51.570;6.036;2023-01-27T04:05:30;102401.91;;;3.78;98.63
49827;BME280;35715;51.570;6.036;2023-01-27T04:08:15;102402.47;;;3.89;99.13
49827;BME280;35715;51.570;6.036;2023-01-27T04:10:41;102396.44;;;3.89;98.61
49827;BME280;35715;51.570;6.036;2023-01-27T04:13:26;102394.63;;;3.88;99.34
49827;BME280;35715;51.570;6.036;2023-01-27T04:15:53;102402.47;;;3.89;98.43
49827;BME280;35715;51.570;6.036;2023-01-27T04:18:18;102395.72;;;3.90;99.14
49827;BME280;35715;51.570;6.036;2023-01-27T04:20:43;102397.00;;;3.86;99.86
49827;BME280;35715;51.570;6.036;2023-01-27T04:23:08;102402.31;;;3.95;100.00
49827;BME280;35715;51.570;6.036;2023-01-27T04:25:34;102407.41;;;3.88;100.00
49827;BME280;35715;51.570;6.036;2023-01-27T04:27:59;102401.19;;;3.71;100.00
49827;BME280;35715;51.570;6.036;2023-01-27T04:30:24;102408.88;;;3.79;100.00
49827;BME280;35715;51.570;6.036;2023-01-27T04:32:49;102407.94;;;3.71;100.00
49827;BME280;35715;51.570;6.036;2023-01-27T04:35:15;102401.56;;;3.82;100.00
49827;BME280;35715;51.570;6.036;2023-01-27T04:37:41;102407.22;;;3.86;100.00
49827;BME280;35715;51.570;6.036;2023-01-27T04:40:06;102408.50;;;3.97;100.00
49827;BME280;35715;51.570;6.036;2023-01-27T04:42:32;102405.03;;;3.89;100.00
49827;BME280;35715;51.570;6.036;2023-01-27T04:44:57;102409.97;;;3.95;100.00
49827;BME280;35715;51.570;6.036;2023-01-27T04:47:22;102414.50;;;3.98;100.00
49827;BME280;35715;51.570;6.036;2023-01-27T04:49:47;102415.97;;;3.88;100.00
49827;BME280;35715;51.570;6.036;2023-01-27T04:52:13;102418.13;;;3.78;100.00
49827;BME280;35715;51.570;6.036;2023-01-27T04:54:39;102420.19;;;3.88;100.00
49827;BME280;35715;51.570;6.036;2023-01-27T04:57:04;102421.81;;;3.95;100.00
49827;BME280;35715;51.570;6.036;2023-01-27T04:59:29;102413.78;;;3.99;100.00
49827;BME280;35715;51.570;6.036;2023-01-27T05:01:55;102417.25;;;3.99;100.00
49827;BME280;35715;51.570;6.036;2023-01-27T05:04:20;102428.53;;;3.80;100.00
49827;BME280;35715;51.570;6.036;2023-01-27T05:06:45;102413.03;;;3.85;100.00
49827;BME280;35715;51.570;6.036;2023-01-27T05:09:10;102425.66;;;3.91;100.00
49827;BME280;35715;51.570;6.036;2023-01-27T05:11:36;102425.09;;;3.86;100.00
49827;BME280;35715;51.570;6.036;2023-01-27T05:14:01;102421.25;;;3.90;100.00
49827;BME280;35715;51.570;6.036;2023-01-27T05:16:26;102418.88;;;3.91;100.00
49827;BME280;35715;51.570;6.036;2023-01-27T05:18:51;102421.78;;;3.87;100.00
49827;BME280;35715;51.570;6.036;2023-01-27T05:21:21;102422.00;;;3.96;100.00
49827;BME280;35715;51.570;6.036;2023-01-27T05:23:47;102415.78;;;4.08;100.00
49827;BME280;35715;51.570;6.036;2023-01-27T05:26:19;102424.56;;;4.11;100.00
49827;BME280;35715;51.570;6.036;2023-01-27T05:28:45;102427.28;;;4.12;100.00
49827;BME280;35715;51.570;6.036;2023-01-27T05:31:13;102425.81;;;4.14;100.00
49827;BME280;35715;51.570;6.036;2023-01-27T05:33:39;102415.97;;;4.10;100.00
49827;BME280;35715;51.570;6.036;2023-01-27T05:36:06;102412.88;;;4.13;100.00
49827;BME280;35715;51.570;6.036;2023-01-27T05:38:31;102416.72;;;4.09;100.00
49827;BME280;35715;51.570;6.036;2023-01-27T05:40:58;102416.16;;;3.97;100.00
49827;BME280;35715;51.570;6.036;2023-01-27T05:43:26;102432.75;;;4.01;100.00
49827;BME280;35715;51.570;6.036;2023-01-27T05:45:51;102429.66;;;4.03;100.00
49827;BME280;35715;51.570;6.036;2023-01-27T05:48:16;102422.34;;;4.06;100.00
49827;BME280;35715;51.570;6.036;2023-01-27T05:50:42;102422.38;;;4.14;100.00
49827;BME280;35715;51.570;6.036;2023-01-27T05:53:07;102422.16;;;4.19;100.00
49827;BME280;35715;51.570;6.036;2023-01-27T05:55:34;102426.91;;;4.23;100.00
49827;BME280;35715;51.570;6.036;2023-01-27T05:57:59;102428.56;;;4.30;100.00
49827;BME280;35715;51.570;6.036;2023-01-27T06:00:25;102428.16;;;4.34;100.00
49827;BME280;35715;51.570;6.036;2023-01-27T06:02:50;102432.38;;;4.34;99.23
49827;BME280;35715;51.570;6.036;2023-01-27T06:05:15;102436.19;;;4.37;99.20
49827;BME280;35715;51.570;6.036;2023-01-27T06:07:41;102442.78;;;4.35;99.10
49827;BME280;35715;51.570;6.036;2023-01-27T06:10:07;102443.91;;;4.30;98.93
49827;BME280;35715;51.570;6.036;2023-01-27T06:12:32;102446.63;;;4.24;99.72
49827;BME280;35715;51.570;6.036;2023-01-27T06:14:57;102445.53;;;4.15;100.00
49827;BME280;35715;51.570;6.036;2023-01-27T06:17:24;102448.47;;;4.25;99.96
49827;BME280;35715;51.570;6.036;2023-01-27T06:19:49;102453.00;;;4.28;99.80
49827;BME280;35715;51.570;6.036;2023-01-27T06:22:14;102447.34;;;4.16;100.00
49827;BME280;35715;51.570;6.036;2023-01-27T06:24:40;102453.91;;;4.07;100.00
49827;BME280;35715;51.570;6.036;2023-01-27T06:27:05;102457.03;;;4.19;100.00
49827;BME280;35715;51.570;6.036;2023-01-27T06:29:30;102461.22;;;4.18;99.57
49827;BME280;35715;51.570;6.036;2023-01-27T06:31:55;102464.88;;;4.06;100.00
49827;BME280;35715;51.570;6.036;2023-01-27T06:34:21;102461.75;;;4.08;100.00
49827;BME280;35715;51.570;6.036;2023-01-27T06:36:46;102466.53;;;4.20;100.00
49827;BME280;35715;51.570;6.036;2023-01-27T06:39:12;102469.97;;;4.20;100.00
49827;BME280;35715;51.570;6.036;2023-01-27T06:41:37;102466.88;;;4.23;99.73
49827;BME280;35715;51.570;6.036;2023-01-27T06:44:03;102469.81;;;4.26;98.89
49827;BME280;35715;51.570;6.036;2023-01-27T06:46:28;102471.28;;;4.24;98.88
49827;BME280;35715;51.570;6.036;2023-01-27T06:48:53;102469.44;;;4.23;98.53
49827;BME280;35715;51.570;6.036;2023-01-27T06:51:18;102467.59;;;4.22;98.59
49827;BME280;35715;51.570;6.036;2023-01-27T06:53:44;102463.97;;;4.13;98.92
49827;BME280;35715;51.570;6.036;2023-01-27T06:56:09;102475.25;;;4.15;99.14
49827;BME280;35715;51.570;6.036;2023-01-27T06:58:34;102476.19;;;4.15;99.54
49827;BME280;35715;51.570;6.036;2023-01-27T07:00:59;102469.63;;;4.17;99.38
49827;BME280;35715;51.570;6.036;2023-01-27T07:03:25;102478.34;;;4.19;99.01
49827;BME280;35715;51.570;6.036;2023-01-27T07:05:51;102463.97;;;4.27;99.06
49827;BME280;35715;51.570;6.036;2023-01-27T07:08:16;102474.56;;;4.30;98.75
49827;BME280;35715;51.570;6.036;2023-01-27T07:10:41;102477.81;;;4.22;98.21
49827;BME280;35715;51.570;6.036;2023-01-27T07:13:08;102474.38;;;4.29;97.98
49827;BME280;35715;51.570;6.036;2023-01-27T07:15:35;102478.91;;;4.31;97.55
49827;BME280;35715;51.570;6.036;2023-01-27T07:18:01;102481.28;;;4.30;97.07
49827;BME280;35715;51.570;6.036;2023-01-27T07:20:26;102491.34;;;4.35;97.36
49827;BME280;35715;51.570;6.036;2023-01-27T07:22:58;102488.78;;;4.28;97.68
49827;BME280;35715;51.570;6.036;2023-01-27T07:25:24;102494.59;;;4.34;98.19
49827;BME280;35715;51.570;6.036;2023-01-27T07:27:49;102498.63;;;4.32;97.88
49827;BME280;35715;51.570;6.036;2023-01-27T07:30:14;102497.19;;;4.27;97.81
49827;BME280;35715;51.570;6.036;2023-01-27T07:32:39;102497.72;;;4.32;97.62
49827;BME280;35715;51.570;6.036;2023-01-27T07:35:05;102486.03;;;4.26;98.04
49827;BME280;35715;51.570;6.036;2023-01-27T07:37:30;102494.25;;;4.31;98.51
49827;BME280;35715;51.570;6.036;2023-01-27T07:39:56;102501.91;;;4.31;97.81
49827;BME280;35715;51.570;6.036;2023-01-27T07:42:21;102505.03;;;4.29;97.92
49827;BME280;35715;51.570;6.036;2023-01-27T07:44:46;102509.41;;;4.30;98.13
49827;BME280;35715;51.570;6.036;2023-01-27T07:47:11;102512.88;;;4.23;97.99
49827;BME280;35715;51.570;6.036;2023-01-27T07:49:37;102511.22;;;4.23;97.82
49827;BME280;35715;51.570;6.036;2023-01-27T07:52:02;102516.69;;;4.19;98.04
49827;BME280;35715;51.570;6.036;2023-01-27T07:54:27;102510.13;;;4.21;98.67
49827;BME280;35715;51.570;6.036;2023-01-27T07:56:52;102514.53;;;4.22;99.13
49827;BME280;35715;51.570;6.036;2023-01-27T07:59:18;102528.19;;;4.23;98.83
49827;BME280;35715;51.570;6.036;2023-01-27T08:01:43;102519.41;;;4.21;98.28
49827;BME280;35715;51.570;6.036;2023-01-27T08:04:08;102530.19;;;4.18;98.66
49827;BME280;35715;51.570;6.036;2023-01-27T08:06:36;102530.00;;;4.09;99.61
49827;BME280;35715;51.570;6.036;2023-01-27T08:09:01;102528.00;;;4.14;98.33
49827;BME280;35715;51.570;6.036;2023-01-27T08:11:27;102525.47;;;4.29;98.85
49827;BME280;35715;51.570;6.036;2023-01-27T08:13:52;102523.47;;;4.26;97.13
49827;BME280;35715;51.570;6.036;2023-01-27T08:16:17;102523.25;;;4.39;97.06
49827;BME280;35715;51.570;6.036;2023-01-27T08:18:42;102517.78;;;4.36;96.36
49827;BME280;35715;51.570;6.036;2023-01-27T08:21:09;102524.19;;;4.32;96.77
49827;BME280;35715;51.570;6.036;2023-01-27T08:23:35;102530.75;;;4.23;97.50
49827;BME280;35715;51.570;6.036;2023-01-27T08:26:01;102532.75;;;4.18;97.57
49827;BME280;35715;51.570;6.036;2023-01-27T08:28:28;102519.44;;;4.28;97.61
49827;BME280;35715;51.570;6.036;2023-01-27T08:30:53;102520.72;;;4.32;97.21
49827;BME280;35715;51.570;6.036;2023-01-27T08:33:20;102525.47;;;4.21;96.76
49827;BME280;35715;51.570;6.036;2023-01-27T08:35:45;102522.91;;;4.36;96.42
49827;BME280;35715;51.570;6.036;2023-01-27T08:38:11;102530.19;;;4.33;95.40
49827;BME280;35715;51.570;6.036;2023-01-27T08:40:37;102530.78;;;4.30;96.32
49827;BME280;35715;51.570;6.036;2023-01-27T08:43:03;102529.84;;;4.37;96.70
49827;BME280;35715;51.570;6.036;2023-01-27T08:45:28;102529.66;;;4.35;95.84
49827;BME280;35715;51.570;6.036;2023-01-27T08:47:53;102530.22;;;4.25;96.16
49827;BME280;35715;51.570;6.036;2023-01-27T08:50:18;102536.78;;;4.31;95.65
49827;BME280;35715;51.570;6.036;2023-01-27T08:52:44;102545.19;;;4.37;96.10
49827;BME280;35715;51.570;6.036;2023-01-27T08:55:10;102540.25;;;4.24;96.41
49827;BME280;35715;51.570;6.036;2023-01-27T08:57:36;102553.75;;;4.37;95.81
49827;BME280;35715;51.570;6.036;2023-01-27T09:00:02;102551.00;;;4.36;95.24
49827;BME280;35715;51.570;6.036;2023-01-27T09:02:28;102547.03;;;4.38;95.64
49827;BME280;35715;51.570;6.036;2023-01-27T09:04:53;102550.84;;;4.41;95.62
49827;BME280;35715;51.570;6.036;2023-01-27T09:07:18;102547.94;;;4.46;94.94
49827;BME280;35715;51.570;6.036;2023-01-27T09:09:47;102550.47;;;4.60;94.51
49827;BME280;35715;51.570;6.036;2023-01-27T09:12:12;102549.03;;;4.55;95.54
49827;BME280;35715;51.570;6.036;2023-01-27T09:14:40;102562.00;;;4.56;95.22
49827;BME280;35715;51.570;6.036;2023-01-27T09:17:05;102551.19;;;4.66;94.72
49827;BME280;35715;51.570;6.036;2023-01-27T09:19:30;102557.59;;;4.70;94.97
49827;BME280;35715;51.570;6.036;2023-01-27T09:21:55;102570.22;;;4.61;94.06
49827;BME280;35715;51.570;6.036;2023-01-27T09:24:25;102562.88;;;4.57;94.92
49827;BME280;35715;51.570;6.036;2023-01-27T09:26:50;102568.53;;;4.61;95.08
49827;BME280;35715;51.570;6.036;2023-01-27T09:29:16;102566.19;;;4.70;94.66
49827;BME280;35715;51.570;6.036;2023-01-27T09:31:41;102567.25;;;4.72;93.57
49827;BME280;35715;51.570;6.036;2023-01-27T09:36:38;102571.13;;;4.69;93.49
49827;BME280;35715;51.570;6.036;2023-01-27T09:39:06;102581.91;;;4.80;93.82
49827;BME280;35715;51.570;6.036;2023-01-27T09:54:31;102588.66;;;4.66;94.69
49827;BME280;35715;51.570;6.036;2023-01-27T10:04:36;102594.50;;;4.57;95.03
49827;BME280;35715;51.570;6.036;2023-01-27T10:07:08;102590.47;;;4.74;94.10
49827;BME280;35715;51.570;6.036;2023-01-27T10:12:16;102591.03;;;4.78;93.51
49827;BME280;35715;51.570;6.036;2023-01-27T10:17:29;102582.41;;;5.00;92.42
49827;BME280;35715;51.570;6.036;2023-01-27T10:22:37;102586.13;;;5.61;91.03
49827;BME280;35715;51.570;6.036;2023-01-27T10:27:58;102586.28;;;5.62;87.43
49827;BME280;35715;51.570;6.036;2023-01-27T10:30:34;102571.81;;;5.70;88.65
49827;BME280;35715;51.570;6.036;2023-01-27T10:38:15;102580.31;;;5.47;88.52
49827;BME280;35715;51.570;6.036;2023-01-27T10:40:55;102585.25;;;5.39;90.33
49827;BME280;35715;51.570;6.036;2023-01-27T10:45:59;102574.88;;;5.30;90.21
49827;BME280;35715;51.570;6.036;2023-01-27T10:48:40;102580.91;;;5.23;90.56
49827;BME280;35715;51.570;6.036;2023-01-27T10:51:20;102574.13;;;5.24;90.33
49827;BME280;35715;51.570;6.036;2023-01-27T11:01:35;102570.19;;;4.97;92.28
49827;BME280;35715;51.570;6.036;2023-01-27T11:07:03;102577.88;;;5.04;92.59
49827;BME280;35715;51.570;6.036;2023-01-27T11:09:30;102574.94;;;4.87;90.90
49827;BME280;35715;51.570;6.036;2023-01-27T11:12:05;102576.38;;;4.99;92.25
49827;BME280;35715;51.570;6.036;2023-01-27T11:14:42;102579.47;;;4.96;92.18
49827;BME280;35715;51.570;6.036;2023-01-27T11:22:47;102575.31;;;4.97;92.04
49827;BME280;35715;51.570;6.036;2023-01-27T11:36:28;102567.94;;;5.29;88.89
49827;BME280;35715;51.570;6.036;2023-01-27T11:38:53;102570.50;;;5.14;90.25
49827;BME280;35715;51.570;6.036;2023-01-27T11:41:19;102569.06;;;5.02;90.21
49827;BME280;35715;51.570;6.036;2023-01-27T11:43:52;102571.22;;;5.21;89.45
49827;BME280;35715;51.570;6.036;2023-01-27T11:46:18;102564.78;;;5.39;88.74
49827;BME280;35715;51.570;6.036;2023-01-27T11:48:46;102564.06;;;5.40;88.38
49827;BME280;35715;51.570;6.036;2023-01-27T11:51:19;102561.34;;;5.31;89.95
49827;BME280;35715;51.570;6.036;2023-01-27T11:54:21;102564.09;;;5.25;88.44
49827;BME280;35715;51.570;6.036;2023-01-27T11:56:40;102564.25;;;5.34;89.94
49827;BME280;35715;51.570;6.036;2023-01-27T11:59:12;102556.63;;;5.20;88.75
49827;BME280;35715;51.570;6.036;2023-01-27T12:01:49;102554.06;;;5.20;90.96
49827;BME280;35715;51.570;6.036;2023-01-27T12:05:06;102548.19;;;5.21;91.26
49827;BME280;35715;51.570;6.036;2023-01-27T12:07:04;102556.19;;;5.38;89.28
49827;BME280;35715;51.570;6.036;2023-01-27T12:09:35;102552.84;;;5.54;88.18
49827;BME280;35715;51.570;6.036;2023-01-27T12:17:32;102539.53;;;5.49;88.83
49827;BME280;35715;51.570;6.036;2023-01-27T12:20:01;102546.31;;;5.41;88.70
49827;BME280;35715;51.570;6.036;2023-01-27T12:22:29;102551.09;;;5.31;90.26
49827;BME280;35715;51.570;6.036;2023-01-27T12:25:02;102543.06;;;5.21;89.30
49827;BME280;35715;51.570;6.036;2023-01-27T12:27:30;102539.22;;;5.31;90.19
49827;BME280;35715;51.570;6.036;2023-01-27T12:29:56;102545.59;;;5.35;89.74
49827;BME280;35715;51.570;6.036;2023-01-27T12:32:26;102541.03;;;5.32;91.02
49827;BME280;35715;51.570;6.036;2023-01-27T12:37:39;102541.63;;;5.15;90.12
49827;BME280;35715;51.570;6.036;2023-01-27T12:40:05;102536.16;;;5.12;89.70
49827;BME280;35715;51.570;6.036;2023-01-27T12:53:30;102535.97;;;5.18;88.21
49827;BME280;35715;51.570;6.036;2023-01-27T12:56:18;102537.22;;;5.29;87.79
49827;BME280;35715;51.570;6.036;2023-01-27T13:03:53;102532.00;;;5.06;87.94
49827;BME280;35715;51.570;6.036;2023-01-27T13:06:24;102527.38;;;5.18;88.30
49827;BME280;35715;51.570;6.036;2023-01-27T13:08:53;102523.19;;;5.11;87.66
49827;BME280;35715;51.570;6.036;2023-01-27T13:11:19;102525.75;;;5.04;88.08
49827;BME280;35715;51.570;6.036;2023-01-27T13:16:28;102523.72;;;5.23;88.29
49827;BME280;35715;51.570;6.036;2023-01-27T13:18:56;102520.41;;;5.24;86.62
49827;BME280;35715;51.570;6.036;2023-01-27T13:21:31;102528.25;;;5.25;87.58
49827;BME280;35715;51.570;6.036;2023-01-27T13:26:58;102528.25;;;5.32;87.21
49827;BME280;35715;51.570;6.036;2023-01-27T13:29:26;102529.53;;;5.29;85.93
49827;BME280;35715;51.570;6.036;2023-01-27T13:32:05;102531.16;;;5.36;86.71
49827;BME280;35715;51.570;6.036;2023-01-27T13:37:22;102528.41;;;5.34;86.07
49827;BME280;35715;51.570;6.036;2023-01-27T13:42:45;102525.84;;;5.41;86.50
49827;BME280;35715;51.570;6.036;2023-01-27T13:47:59;102536.41;;;5.51;86.03
49827;BME280;35715;51.570;6.036;2023-01-27T13:50:37;102525.78;;;5.56;84.13
49827;BME280;35715;51.570;6.036;2023-01-27T13:53:07;102537.50;;;5.46;85.45
49827;BME280;35715;51.570;6.036;2023-01-27T13:55:46;102540.47;;;5.42;84.41
49827;BME280;35715;51.570;6.036;2023-01-27T14:00:39;102532.66;;;5.26;83.25
49827;BME280;35715;51.570;6.036;2023-01-27T14:03:31;102532.28;;;5.30;85.43
49827;BME280;35715;51.570;6.036;2023-01-27T14:13:56;102536.53;;;5.15;85.22
49827;BME280;35715;51.570;6.036;2023-01-27T14:16:30;102534.69;;;5.14;85.55
49827;BME280;35715;51.570;6.036;2023-01-27T14:19:06;102537.44;;;5.16;85.95
49827;BME280;35715;51.570;6.036;2023-01-27T14:21:38;102548.72;;;5.25;85.90
49827;BME280;35715;51.570;6.036;2023-01-27T14:34:34;102547.28;;;5.27;84.51
49827;BME280;35715;51.570;6.036;2023-01-27T14:37:08;102554.06;;;5.20;84.33
49827;BME280;35715;51.570;6.036;2023-01-27T14:42:12;102558.59;;;5.22;84.64
49827;BME280;35715;51.570;6.036;2023-01-27T14:50:21;102570.19;;;4.97;84.76
49827;BME280;35715;51.570;6.036;2023-01-27T15:01:05;102570.53;;;5.07;83.61
49827;BME280;35715;51.570;6.036;2023-01-27T15:03:42;102577.69;;;5.03;83.68
49827;BME280;35715;51.570;6.036;2023-01-27T15:07:11;102573.47;;;4.89;82.19
49827;BME280;35715;51.570;6.036;2023-01-27T15:09:17;102578.44;;;4.80;82.69
49827;BME280;35715;51.570;6.036;2023-01-27T15:11:59;102582.97;;;4.83;84.69
49827;BME280;35715;51.570;6.036;2023-01-27T15:17:22;102593.38;;;4.84;83.65
49827;BME280;35715;51.570;6.036;2023-01-27T15:27:47;102608.53;;;4.83;85.36
49827;BME280;35715;51.570;6.036;2023-01-27T15:30:20;102605.06;;;4.96;84.58
49827;BME280;35715;51.570;6.036;2023-01-27T15:32:46;102605.47;;;4.92;85.63
49827;BME280;35715;51.570;6.036;2023-01-27T15:43:19;102612.00;;;4.90;86.25
49827;BME280;35715;51.570;6.036;2023-01-27T15:45:47;102608.75;;;4.77;86.27
49827;BME280;35715;51.570;6.036;2023-01-27T15:48:18;102618.41;;;4.72;86.46
49827;BME280;35715;51.570;6.036;2023-01-27T15:50:53;102614.41;;;4.67;86.39
49827;BME280;35715;51.570;6.036;2023-01-27T15:53:25;102615.69;;;4.64;86.81
49827;BME280;35715;51.570;6.036;2023-01-27T15:55:53;102620.97;;;4.58;87.34
49827;BME280;35715;51.570;6.036;2023-01-27T16:01:08;102621.13;;;4.52;87.43
49827;BME280;35715;51.570;6.036;2023-01-27T16:03:39;102631.94;;;4.50;88.16
49827;BME280;35715;51.570;6.036;2023-01-27T16:06:21;102630.81;;;4.55;87.07